Ford City, Pennsylvania
Current Conditions -  °F | °C
As of 11:35 PM on Thursday 20 Nov 2014 (Local Time) from KBTP Reporting Station
Broken Clouds Broken Clouds  
Wind Chill: 10°   Ceiling: 3500
Heat Index: 21°   Visibility: 10mi
Dew Point:   Wind: 10mph
Humidity: 58%   Direction: 250°WSW
Pressure: 30.12"   Gusts: 18mph
Location:  40.77°N, 79.53°W
Report Text: KBTP 210435Z AUTO 25009G16KT 10SM BKN035 M06/M13 A3012 RMK AO1
Loading
Personal Weather Stations






























Interactive Weather Map New forecast layout! Learn more

10-Day Weather Forecast

Advertisements
Track Severe Weather on mobile